createdAt,value
2018-03-22T00:00:46.564Z,3.40
2018-03-22T00:03:14.115Z,3.30
2018-03-22T00:05:41.629Z,3.40
2018-03-22T00:08:09.938Z,3.40
2018-03-22T00:10:37.453Z,3.40
2018-03-22T00:13:04.990Z,3.40
2018-03-22T00:15:32.512Z,3.40
2018-03-22T00:18:00.823Z,3.50
2018-03-22T00:20:28.348Z,3.50
2018-03-22T00:22:55.885Z,3.50
2018-03-22T00:25:23.411Z,3.50
2018-03-22T00:27:51.724Z,3.50
2018-03-22T00:30:19.240Z,3.50
2018-03-22T00:32:46.795Z,3.50
2018-03-22T00:35:14.362Z,3.50
2018-03-22T00:37:41.887Z,3.40
2018-03-22T00:40:09.441Z,3.50
2018-03-22T00:42:37.025Z,3.50
2018-03-22T00:45:04.611Z,3.40
2018-03-22T00:47:32.145Z,3.40
2018-03-22T00:49:59.697Z,3.40
2018-03-22T00:52:27.257Z,3.40
2018-03-22T00:54:54.796Z,3.50
2018-03-22T00:57:22.318Z,3.40
2018-03-22T00:59:49.858Z,3.40
2018-03-22T01:02:18.141Z,3.50
2018-03-22T01:04:45.681Z,3.40
2018-03-22T01:07:13.201Z,3.40
2018-03-22T01:09:41.517Z,3.40
2018-03-22T01:12:09.035Z,3.30
2018-03-22T01:14:36.575Z,3.30
2018-03-22T01:17:04.103Z,3.30
2018-03-22T01:19:32.413Z,3.30
2018-03-22T01:21:59.954Z,3.30
2018-03-22T01:24:27.497Z,3.30
2018-03-22T01:26:55.049Z,3.20
2018-03-22T01:29:22.581Z,3.20
2018-03-22T01:31:50.170Z,3.10
2018-03-22T01:34:17.670Z,3.10
2018-03-22T01:36:45.261Z,3.00
2018-03-22T01:39:12.849Z,3.00
2018-03-22T01:41:40.373Z,3.00
2018-03-22T01:44:08.059Z,2.90
2018-03-22T01:46:35.584Z,2.90
2018-03-22T01:49:03.132Z,2.90
2018-03-22T01:51:30.648Z,2.90
2018-03-22T01:53:58.963Z,2.90
2018-03-22T01:56:26.500Z,2.80
2018-03-22T01:58:54.017Z,2.80
2018-03-22T02:01:21.569Z,2.80
2018-03-22T02:03:49.084Z,2.80
2018-03-22T02:06:16.620Z,2.80
2018-03-22T02:08:44.918Z,2.80
2018-03-22T02:11:12.456Z,2.70
2018-03-22T02:13:40.041Z,2.80
2018-03-22T02:16:07.643Z,2.80
2018-03-22T02:18:35.184Z,2.70
2018-03-22T02:21:02.740Z,2.70
2018-03-22T02:23:30.274Z,2.70
2018-03-22T02:25:57.809Z,2.60
2018-03-22T02:28:25.388Z,2.60
2018-03-22T02:30:52.931Z,2.60
2018-03-22T02:33:20.449Z,2.60
2018-03-22T02:35:48.017Z,2.60
2018-03-22T02:38:15.545Z,2.60
2018-03-22T02:40:43.096Z,2.60
2018-03-22T02:43:10.638Z,2.50
2018-03-22T02:45:38.205Z,2.50
2018-03-22T02:48:05.736Z,2.50
2018-03-22T02:50:33.332Z,2.60
2018-03-22T02:53:01.624Z,2.60
2018-03-22T02:55:29.161Z,2.60
2018-03-22T02:57:56.690Z,2.70
2018-03-22T03:00:24.276Z,2.70
2018-03-22T03:02:51.783Z,2.70
2018-03-22T03:05:19.347Z,2.70
2018-03-22T03:07:46.988Z,2.70
2018-03-22T03:10:14.534Z,2.70
2018-03-22T03:12:42.382Z,2.70
2018-03-22T03:15:09.957Z,2.70
2018-03-22T03:17:37.813Z,2.70
2018-03-22T03:20:05.666Z,2.60
2018-03-22T03:22:33.516Z,2.60
2018-03-22T03:25:01.075Z,2.60
2018-03-22T03:27:28.610Z,2.60
2018-03-22T03:29:56.133Z,2.60
2018-03-22T03:32:23.663Z,2.60
2018-03-22T03:34:51.186Z,2.50
2018-03-22T03:37:19.495Z,2.50
2018-03-22T03:39:47.046Z,2.50
2018-03-22T03:42:14.906Z,2.50
2018-03-22T03:44:42.644Z,2.50
2018-03-22T03:47:10.212Z,2.50
2018-03-22T03:49:38.535Z,2.50
2018-03-22T03:52:06.069Z,2.40
2018-03-22T03:54:33.579Z,2.40
2018-03-22T03:57:01.895Z,2.40
2018-03-22T03:59:29.415Z,2.40
2018-03-22T04:01:56.940Z,2.40
2018-03-22T04:04:25.232Z,2.40
2018-03-22T04:06:52.793Z,2.40
2018-03-22T04:09:20.359Z,2.30
2018-03-22T04:11:49.504Z,2.40
2018-03-22T04:14:17.031Z,2.40
2018-03-22T04:16:44.562Z,2.40
2018-03-22T04:19:12.839Z,2.40
2018-03-22T04:21:40.415Z,2.40
2018-03-22T04:24:07.942Z,2.40
2018-03-22T04:26:35.504Z,2.40
2018-03-22T04:29:03.027Z,2.40
2018-03-22T04:31:30.567Z,2.30
2018-03-22T04:33:58.109Z,2.30
2018-03-22T04:36:25.654Z,2.30
2018-03-22T04:38:53.195Z,2.30
2018-03-22T04:41:20.735Z,2.30
2018-03-22T04:43:48.260Z,2.20
2018-03-22T04:46:16.549Z,2.30
2018-03-22T04:48:44.093Z,2.20
2018-03-22T04:51:11.612Z,2.20
2018-03-22T04:53:39.955Z,2.30
2018-03-22T04:56:07.466Z,2.30
2018-03-22T04:58:34.991Z,2.30
2018-03-22T05:01:02.535Z,2.30
2018-03-22T05:03:30.077Z,2.30
2018-03-22T05:05:57.603Z,2.30
2018-03-22T05:08:25.189Z,2.30
2018-03-22T05:10:52.705Z,2.40
2018-03-22T05:13:20.260Z,2.40
2018-03-22T05:15:48.003Z,2.40
2018-03-22T05:18:15.537Z,2.40
2018-03-22T05:20:43.086Z,2.40
2018-03-22T05:23:10.625Z,2.50
2018-03-22T05:25:38.143Z,2.50
2018-03-22T05:28:06.448Z,2.50
2018-03-22T05:30:33.960Z,2.50
2018-03-22T05:33:02.252Z,2.60
2018-03-22T05:35:29.768Z,2.60
2018-03-22T05:37:58.063Z,2.60
2018-03-22T05:40:25.585Z,2.60
2018-03-22T05:42:53.120Z,2.60
2018-03-22T05:45:20.684Z,2.70
2018-03-22T05:47:48.212Z,2.70
2018-03-22T05:50:15.751Z,2.70
2018-03-22T05:52:44.031Z,2.80
2018-03-22T05:55:11.604Z,2.80
2018-03-22T05:57:39.112Z,2.80
2018-03-22T06:00:06.658Z,2.90
2018-03-22T06:02:34.185Z,2.80
2018-03-22T06:05:02.493Z,2.80
2018-03-22T06:07:30.018Z,2.80
2018-03-22T06:09:57.572Z,2.80
2018-03-22T06:12:25.138Z,2.80
2018-03-22T06:14:52.691Z,2.80
2018-03-22T06:17:20.218Z,2.80
2018-03-22T06:19:48.066Z,2.70
2018-03-22T06:22:15.579Z,2.70
2018-03-22T06:24:43.122Z,2.70
2018-03-22T06:27:10.678Z,2.70
2018-03-22T06:29:38.221Z,2.70
2018-03-22T06:32:05.736Z,2.80
2018-03-22T06:34:34.028Z,2.90
2018-03-22T06:37:02.460Z,2.90
2018-03-22T06:39:30.756Z,3.00
2018-03-22T06:41:58.275Z,3.00
2018-03-22T06:44:26.591Z,3.00
2018-03-22T06:46:54.133Z,3.00
2018-03-22T06:49:21.677Z,3.00
2018-03-22T06:51:49.202Z,2.90
2018-03-22T06:54:16.741Z,2.90
2018-03-22T06:56:44.266Z,2.80
2018-03-22T06:59:11.806Z,2.70
2018-03-22T07:01:40.087Z,2.60
2018-03-22T07:04:08.069Z,2.60
2018-03-22T07:06:36.388Z,2.40
2018-03-22T07:09:05.423Z,2.30
2018-03-22T07:11:32.960Z,2.30
2018-03-22T07:14:00.476Z,2.10
2018-03-22T07:16:28.003Z,2.00
2018-03-22T07:18:55.516Z,1.90
2018-03-22T07:21:23.057Z,1.80
2018-03-22T07:23:50.576Z,1.80
2018-03-22T07:26:18.113Z,1.80
2018-03-22T07:28:45.626Z,1.70
2018-03-22T07:31:13.185Z,1.60
2018-03-22T07:33:40.719Z,1.60
2018-03-22T07:36:08.248Z,1.60
2018-03-22T07:38:36.519Z,1.60
2018-03-22T07:41:04.088Z,1.60
2018-03-22T07:43:37.376Z,1.70
2018-03-22T07:46:04.924Z,1.70
2018-03-22T07:48:32.451Z,1.70
2018-03-22T07:50:59.983Z,1.70
2018-03-22T07:53:27.509Z,1.70
2018-03-22T07:55:55.044Z,1.80
2018-03-22T07:58:23.337Z,1.80
2018-03-22T08:00:50.978Z,1.80
2018-03-22T08:03:18.502Z,1.80
2018-03-22T08:05:46.835Z,1.80
2018-03-22T08:08:14.408Z,1.70
2018-03-22T08:10:42.717Z,2.00
2018-03-22T08:13:10.243Z,1.90
2018-03-22T08:15:37.784Z,2.00
2018-03-22T08:18:05.356Z,2.00
2018-03-22T08:20:32.914Z,2.00
2018-03-22T08:23:01.222Z,2.00
2018-03-22T08:25:28.882Z,2.00
2018-03-22T08:27:56.407Z,2.10
2018-03-22T08:30:24.680Z,2.20
2018-03-22T08:32:52.262Z,2.20
2018-03-22T08:35:19.822Z,2.20
2018-03-22T08:37:47.361Z,2.20
2018-03-22T08:40:14.879Z,2.30
2018-03-22T08:42:42.846Z,2.30
2018-03-22T08:45:10.392Z,2.40
2018-03-22T08:47:37.920Z,2.50
2018-03-22T08:50:05.428Z,2.60
2018-03-22T08:52:33.741Z,2.50
2018-03-22T08:55:01.278Z,2.50
2018-03-22T08:57:28.822Z,2.40
2018-03-22T08:59:56.335Z,2.30
2018-03-22T09:02:23.874Z,2.40
2018-03-22T09:04:51.397Z,2.50
2018-03-22T09:07:19.748Z,2.50
2018-03-22T09:09:47.280Z,2.50
2018-03-22T09:12:14.829Z,2.50
2018-03-22T09:14:42.356Z,2.50
2018-03-22T09:17:09.898Z,2.50
2018-03-22T09:19:37.432Z,2.50
2018-03-22T09:22:04.978Z,2.40
2018-03-22T09:24:32.491Z,2.50
2018-03-22T09:27:05.805Z,2.50
2018-03-22T09:29:33.336Z,2.50
2018-03-22T09:32:00.885Z,2.40
2018-03-22T09:34:28.420Z,2.40
2018-03-22T09:36:55.967Z,2.30
2018-03-22T09:39:24.244Z,2.20
2018-03-22T09:41:51.844Z,2.20
2018-03-22T09:44:19.326Z,2.20
2018-03-22T09:46:46.851Z,2.20
2018-03-22T09:49:14.390Z,2.20
2018-03-22T09:51:41.922Z,2.20
2018-03-22T09:54:10.234Z,2.20
2018-03-22T09:56:37.758Z,2.10
2018-03-22T09:59:05.289Z,2.10
2018-03-22T10:01:32.810Z,2.10
2018-03-22T10:04:00.372Z,2.20
2018-03-22T10:06:27.905Z,2.10
2018-03-22T10:08:56.217Z,2.30
2018-03-22T10:11:23.737Z,2.20
2018-03-22T10:13:51.275Z,2.20
2018-03-22T10:16:18.820Z,2.20
2018-03-22T10:18:46.365Z,2.20
2018-03-22T10:21:13.913Z,2.20
2018-03-22T10:23:41.505Z,2.20
2018-03-22T10:26:09.023Z,2.20
2018-03-22T10:28:36.548Z,2.20
2018-03-22T10:31:04.114Z,2.10
2018-03-22T10:33:31.649Z,2.20
2018-03-22T10:35:59.244Z,2.30
2018-03-22T10:38:26.759Z,2.30
2018-03-22T10:40:54.291Z,2.30
2018-03-22T10:43:21.819Z,2.40
2018-03-22T10:45:49.329Z,2.50
2018-03-22T10:48:17.654Z,2.50
2018-03-22T10:50:45.185Z,2.50
2018-03-22T10:53:12.699Z,2.50
2018-03-22T10:55:40.237Z,2.60
2018-03-22T10:58:07.748Z,2.50
2018-03-22T11:00:38.016Z,2.50
2018-03-22T11:03:11.268Z,2.50
2018-03-22T11:05:38.824Z,2.50
2018-03-22T11:08:06.381Z,2.50
2018-03-22T11:10:33.911Z,2.40
2018-03-22T11:13:01.421Z,2.40
2018-03-22T11:15:28.997Z,2.40
2018-03-22T11:17:56.544Z,2.40
2018-03-22T11:20:24.124Z,2.40
2018-03-22T11:22:51.677Z,2.50
2018-03-22T11:25:19.223Z,2.50
2018-03-22T11:27:46.741Z,2.60
2018-03-22T11:30:14.392Z,2.60
2018-03-22T11:32:41.911Z,2.60
2018-03-22T11:35:09.552Z,2.50
2018-03-22T11:37:37.068Z,2.50
2018-03-22T11:40:05.386Z,2.50
2018-03-22T11:42:33.739Z,2.50
2018-03-22T11:45:01.278Z,2.50
2018-03-22T11:47:28.846Z,2.40
2018-03-22T11:49:56.481Z,2.50
2018-03-22T11:52:24.010Z,2.60
2018-03-22T11:54:51.548Z,2.60
2018-03-22T11:57:19.092Z,2.70
2018-03-22T11:59:46.637Z,2.70
2018-03-22T12:02:14.510Z,2.90
2018-03-22T12:04:42.060Z,3.00
2018-03-22T12:07:09.597Z,3.10
2018-03-22T12:09:37.147Z,3.20
2018-03-22T12:12:04.686Z,3.30
2018-03-22T12:14:32.215Z,3.30
2018-03-22T12:16:59.740Z,3.30
2018-03-22T12:19:27.255Z,3.30
2018-03-22T12:21:54.776Z,3.30
2018-03-22T12:24:22.288Z,3.40
2018-03-22T12:26:49.827Z,3.40
2018-03-22T12:29:18.530Z,3.50
2018-03-22T12:31:46.101Z,3.50
2018-03-22T12:34:13.627Z,3.50
2018-03-22T12:36:41.179Z,3.50
2018-03-22T12:39:08.706Z,3.50
2018-03-22T12:41:36.236Z,3.50
2018-03-22T12:44:03.770Z,3.50
2018-03-22T12:46:31.299Z,3.60
2018-03-22T12:48:58.811Z,3.60
2018-03-22T12:51:26.420Z,3.50
2018-03-22T12:53:53.999Z,3.60
2018-03-22T12:56:21.581Z,3.60
2018-03-22T12:58:49.152Z,3.60
2018-03-22T13:01:16.697Z,3.50
2018-03-22T13:03:44.215Z,3.60
2018-03-22T13:06:11.740Z,3.60
2018-03-22T13:08:40.023Z,3.80
2018-03-22T13:11:08.711Z,3.80
2018-03-22T13:13:36.259Z,3.70
2018-03-22T13:16:03.792Z,3.80
2018-03-22T13:18:31.333Z,3.80
2018-03-22T13:20:58.903Z,3.80
2018-03-22T13:23:26.432Z,3.80
2018-03-22T13:25:53.963Z,3.80
2018-03-22T13:28:21.505Z,3.80
2018-03-22T13:30:49.031Z,3.70
2018-03-22T13:33:17.361Z,3.80
2018-03-22T13:35:44.890Z,3.70
2018-03-22T13:38:12.426Z,3.80
2018-03-22T13:40:40.072Z,3.90
2018-03-22T13:43:07.718Z,3.90
2018-03-22T13:45:35.264Z,3.90
2018-03-22T13:48:02.951Z,3.90
2018-03-22T13:50:31.231Z,4.10
2018-03-22T13:52:58.767Z,4.10
2018-03-22T13:55:27.057Z,4.10
2018-03-22T13:57:54.585Z,4.10
2018-03-22T14:00:22.156Z,4.10
2018-03-22T14:02:49.706Z,4.10
2018-03-22T14:05:17.233Z,4.10
2018-03-22T14:07:44.790Z,4.10
2018-03-22T14:10:12.368Z,4.10
2018-03-22T14:12:39.949Z,4.10
2018-03-22T14:15:07.490Z,4.20
2018-03-22T14:17:35.089Z,4.10
2018-03-22T14:20:02.644Z,4.10
2018-03-22T14:22:30.231Z,4.10
2018-03-22T14:24:57.747Z,4.20
2018-03-22T14:27:25.293Z,4.20
2018-03-22T14:29:52.844Z,4.20
2018-03-22T14:32:20.395Z,4.30
2018-03-22T14:34:48.677Z,4.30
2018-03-22T14:37:16.227Z,4.30
2018-03-22T14:39:43.818Z,4.30
2018-03-22T14:42:11.336Z,4.30
2018-03-22T14:44:38.875Z,4.30
2018-03-22T14:47:06.390Z,4.20
2018-03-22T14:49:33.973Z,4.20
2018-03-22T14:52:01.530Z,4.10
2018-03-22T14:54:29.069Z,4.10
2018-03-22T14:56:56.618Z,4.10
2018-03-22T14:59:24.167Z,4.10
2018-03-22T15:01:51.728Z,4.10
2018-03-22T15:04:19.294Z,4.00
2018-03-22T15:06:47.582Z,4.10
2018-03-22T15:09:15.116Z,4.00
2018-03-22T15:11:42.632Z,4.10
2018-03-22T15:14:11.080Z,4.10
2018-03-22T15:16:38.564Z,4.00
2018-03-22T15:19:06.106Z,4.10
2018-03-22T15:21:33.637Z,4.10
2018-03-22T15:24:01.940Z,4.10
2018-03-22T15:26:29.452Z,4.10
2018-03-22T15:28:57.058Z,4.10
2018-03-22T15:31:24.567Z,4.10
2018-03-22T15:33:52.096Z,4.20
2018-03-22T15:36:19.615Z,4.20
2018-03-22T15:38:47.919Z,4.20
2018-03-22T15:41:15.522Z,4.20
2018-03-22T15:43:43.820Z,4.20
2018-03-22T15:46:11.375Z,4.20
2018-03-22T15:48:38.927Z,4.20
2018-03-22T15:51:06.455Z,4.10
2018-03-22T15:53:34.126Z,4.10
2018-03-22T15:56:01.710Z,4.10
2018-03-22T15:58:29.999Z,4.10
2018-03-22T16:00:57.528Z,4.10
2018-03-22T16:03:25.061Z,4.10
2018-03-22T16:05:53.398Z,4.20
2018-03-22T16:08:20.931Z,4.20
2018-03-22T16:10:48.565Z,4.20
2018-03-22T16:13:16.096Z,4.20
2018-03-22T16:15:43.639Z,4.20
2018-03-22T16:18:11.177Z,4.30
2018-03-22T16:20:38.775Z,4.30
2018-03-22T16:23:06.296Z,4.30
2018-03-22T16:25:33.872Z,4.30
2018-03-22T16:28:01.502Z,4.40
2018-03-22T16:30:29.156Z,4.40
2018-03-22T16:32:56.674Z,4.30
2018-03-22T16:35:24.308Z,4.30
2018-03-22T16:37:51.835Z,4.30
2018-03-22T16:40:19.461Z,4.30
2018-03-22T16:42:47.001Z,4.30
2018-03-22T16:45:15.302Z,4.30
2018-03-22T16:47:42.819Z,4.30
2018-03-22T16:50:10.361Z,4.30
2018-03-22T16:52:37.971Z,4.30
2018-03-22T16:55:05.598Z,4.30
2018-03-22T16:57:33.126Z,4.20
2018-03-22T17:00:00.769Z,4.30
2018-03-22T17:02:28.291Z,4.30
2018-03-22T17:04:55.828Z,4.30
2018-03-22T17:07:23.359Z,4.20
2018-03-22T17:09:51.661Z,4.20
2018-03-22T17:12:19.247Z,4.20
2018-03-22T17:14:46.776Z,4.20
2018-03-22T17:17:14.326Z,4.20
2018-03-22T17:19:43.359Z,4.40
2018-03-22T17:22:11.040Z,4.40
2018-03-22T17:24:38.609Z,4.50
2018-03-22T17:27:07.142Z,4.60
2018-03-22T17:29:34.686Z,4.60
2018-03-22T17:32:02.256Z,4.50
2018-03-22T17:34:30.579Z,4.50
2018-03-22T17:36:58.292Z,4.50
2018-03-22T17:39:26.572Z,4.40
2018-03-22T17:41:54.103Z,4.40
2018-03-22T17:44:22.404Z,4.30
2018-03-22T17:46:50.031Z,4.30
2018-03-22T17:49:17.579Z,4.30
2018-03-22T17:51:45.193Z,4.30
2018-03-22T17:54:13.533Z,4.30
2018-03-22T17:56:41.076Z,4.30
2018-03-22T17:59:08.655Z,4.30
2018-03-22T18:01:36.970Z,4.20
2018-03-22T18:04:04.542Z,4.20
2018-03-22T18:06:32.081Z,4.20
2018-03-22T18:08:59.704Z,4.20
2018-03-22T18:11:27.251Z,4.20
2018-03-22T18:13:54.819Z,4.20
2018-03-22T18:16:22.363Z,4.20
2018-03-22T18:18:49.905Z,4.20
2018-03-22T18:21:17.434Z,4.20
2018-03-22T18:23:44.989Z,4.20
2018-03-22T18:26:12.503Z,4.20
2018-03-22T18:28:40.098Z,4.20
2018-03-22T18:31:07.644Z,4.20
2018-03-22T18:33:35.965Z,4.20
2018-03-22T18:36:03.489Z,4.20
2018-03-22T18:38:31.054Z,4.20
2018-03-22T18:40:58.569Z,4.30
2018-03-22T18:43:26.106Z,4.30
2018-03-22T18:45:53.691Z,4.30
2018-03-22T18:48:21.269Z,4.30
2018-03-22T18:50:49.592Z,4.30
2018-03-22T18:53:17.120Z,4.30
2018-03-22T18:55:44.647Z,4.30
2018-03-22T18:58:12.218Z,4.30
2018-03-22T19:00:39.754Z,4.30
2018-03-22T19:03:07.364Z,4.40
2018-03-22T19:05:34.907Z,4.40
2018-03-22T19:08:02.554Z,4.40
2018-03-22T19:10:30.893Z,4.50
2018-03-22T19:12:58.484Z,4.50
2018-03-22T19:15:26.003Z,4.50
2018-03-22T19:17:54.368Z,4.50
2018-03-22T19:20:21.961Z,4.50
2018-03-22T19:22:49.530Z,4.50
2018-03-22T19:25:17.056Z,4.50
2018-03-22T19:27:44.608Z,4.60
2018-03-22T19:30:12.123Z,4.60
2018-03-22T19:32:39.680Z,4.60
2018-03-22T19:35:07.198Z,4.60
2018-03-22T19:37:34.723Z,4.60
2018-03-22T19:40:03.052Z,4.70
2018-03-22T19:42:30.604Z,4.60
2018-03-22T19:44:58.970Z,4.60
2018-03-22T19:47:26.492Z,4.60
2018-03-22T19:49:54.026Z,4.60
2018-03-22T19:52:21.561Z,4.70
2018-03-22T19:54:49.113Z,4.70
2018-03-22T19:57:16.636Z,4.80
2018-03-22T19:59:44.164Z,4.70
2018-03-22T20:02:12.461Z,4.70
2018-03-22T20:04:40.004Z,4.70
2018-03-22T20:07:07.568Z,4.70
2018-03-22T20:09:35.141Z,4.70
2018-03-22T20:12:02.692Z,4.70
2018-03-22T20:14:30.364Z,4.70
2018-03-22T20:16:58.412Z,4.80
2018-03-22T20:19:26.765Z,4.80
2018-03-22T20:21:55.081Z,4.80
2018-03-22T20:24:22.621Z,4.80
2018-03-22T20:26:50.150Z,4.80
2018-03-22T20:29:17.716Z,4.80
2018-03-22T20:31:45.258Z,4.80
2018-03-22T20:34:12.909Z,4.80
2018-03-22T20:36:40.424Z,4.70
2018-03-22T20:39:07.951Z,4.70
2018-03-22T20:41:36.478Z,4.80
2018-03-22T20:44:04.071Z,4.80
2018-03-22T20:46:31.584Z,4.80
2018-03-22T20:48:59.134Z,4.70
2018-03-22T20:51:26.650Z,4.70
2018-03-22T20:53:54.261Z,4.70
2018-03-22T20:56:21.777Z,4.70
2018-03-22T20:58:51.110Z,4.70
2018-03-22T21:01:18.635Z,4.70
2018-03-22T21:03:46.152Z,4.70
2018-03-22T21:06:14.500Z,4.70
2018-03-22T21:08:42.027Z,4.70
2018-03-22T21:11:09.602Z,4.70
2018-03-22T21:13:37.155Z,4.70
2018-03-22T21:16:05.469Z,4.80
2018-03-22T21:18:33.021Z,4.80
2018-03-22T21:21:00.566Z,4.80
2018-03-22T21:23:28.080Z,4.80
2018-03-22T21:25:55.636Z,4.90
2018-03-22T21:28:23.193Z,4.90
2018-03-22T21:30:50.736Z,4.80
2018-03-22T21:33:18.248Z,4.80
2018-03-22T21:35:45.804Z,4.80
2018-03-22T21:38:13.334Z,4.80
2018-03-22T21:40:40.877Z,4.80
2018-03-22T21:43:08.405Z,4.70
2018-03-22T21:45:35.939Z,4.80
2018-03-22T21:48:04.242Z,4.80
2018-03-22T21:50:43.809Z,4.80
2018-03-22T21:53:11.630Z,4.80
2018-03-22T21:55:39.204Z,4.80
2018-03-22T21:58:06.821Z,4.80
2018-03-22T22:00:34.472Z,4.80
2018-03-22T22:03:02.032Z,4.80
2018-03-22T22:05:29.564Z,4.80
2018-03-22T22:07:57.085Z,4.80
2018-03-22T22:10:24.649Z,4.70
2018-03-22T22:12:52.194Z,4.80
2018-03-22T22:15:19.745Z,4.80
2018-03-22T22:17:48.339Z,4.80
2018-03-22T22:20:17.939Z,4.80
2018-03-22T22:22:46.329Z,4.80
2018-03-22T22:25:13.848Z,4.80
2018-03-22T22:27:42.167Z,4.80
2018-03-22T22:30:09.697Z,4.80
2018-03-22T22:32:37.237Z,4.80
2018-03-22T22:35:04.791Z,4.80
2018-03-22T22:37:32.336Z,4.80
2018-03-22T22:39:59.881Z,4.70
2018-03-22T22:42:27.413Z,4.70
2018-03-22T22:44:54.938Z,4.70
2018-03-22T22:47:22.598Z,4.70
2018-03-22T22:49:50.127Z,4.70
2018-03-22T22:52:18.710Z,4.70
2018-03-22T22:54:46.247Z,4.70
2018-03-22T22:57:14.710Z,4.70
2018-03-22T22:59:42.234Z,4.60
2018-03-22T23:02:10.542Z,4.70
2018-03-22T23:04:38.065Z,4.70
2018-03-22T23:07:05.595Z,4.70
2018-03-22T23:09:33.907Z,4.70
2018-03-22T23:12:01.513Z,4.70
2018-03-22T23:14:30.293Z,4.60
2018-03-22T23:16:57.974Z,4.60
2018-03-22T23:19:25.484Z,4.60
2018-03-22T23:21:53.035Z,4.60
2018-03-22T23:24:20.655Z,4.60
2018-03-22T23:26:48.954Z,4.60
2018-03-22T23:29:16.467Z,4.60
2018-03-22T23:31:44.007Z,4.60
2018-03-22T23:34:12.307Z,4.50
2018-03-22T23:36:39.832Z,4.50
2018-03-22T23:39:07.405Z,4.50
2018-03-22T23:41:34.929Z,4.50
2018-03-22T23:44:02.480Z,4.50
2018-03-22T23:46:31.361Z,4.60
2018-03-22T23:48:58.897Z,4.50
2018-03-22T23:51:26.422Z,4.60
2018-03-22T23:53:53.964Z,4.60
2018-03-22T23:56:21.484Z,4.60
2018-03-22T23:58:49.034Z,4.60
